Terminal Aerodrome Forecast
Issued by NWS

Home | Current Version | Previous Version | Text Only | Print | Product List | Glossary On
Versions: 1 2 3 4 5 6 7 8 9 10 11 12 13 14 15 16 17 18
868
FTUS42 KFFC 041723
TAFPDK
TAF
KPDK 041723Z 0418/0518 09008G16KT 3SM -RA BR OVC008
     FM042200 06007KT 3SM -RADZ BR OVC005
     FM050100 05005KT 2SM -RADZ BR OVC003
     FM051500 04004KT 3SM -RA BR OVC005=

USA.gov is the U.S. government's official web portal to all federal, state and local government web resources and services.